sensor_id;sensor_type;location;lat;lon;timestamp;pressure;altitude;pressure_sealevel;temperature;humidity
47280;BME280;34064;44.942;0.008;2023-04-19T01:18:35;98702.59;;;11.59;52.60
47280;BME280;34064;44.942;0.008;2023-04-19T01:21:39;98695.59;;;11.58;52.36
47280;BME280;34064;44.942;0.008;2023-04-19T01:25:06;98684.38;;;11.54;52.54
47280;BME280;34064;44.942;0.008;2023-04-19T01:37:21;98686.78;;;11.24;52.82
47280;BME280;34064;44.942;0.008;2023-04-19T01:45:16;98686.69;;;11.03;52.40
47280;BME280;34064;44.942;0.008;2023-04-19T01:48:05;98685.09;;;11.01;52.72
47280;BME280;34064;44.942;0.008;2023-04-19T01:50:55;98693.72;;;10.93;53.45
47280;BME280;34064;44.942;0.008;2023-04-19T01:53:51;98700.50;;;10.86;53.46
47280;BME280;34064;44.942;0.008;2023-04-19T01:56:40;98699.50;;;10.87;53.23
47280;BME280;34064;44.942;0.008;2023-04-19T01:59:31;98691.66;;;10.85;53.15
47280;BME280;34064;44.942;0.008;2023-04-19T02:02:51;98693.59;;;10.83;52.99
47280;BME280;34064;44.942;0.008;2023-04-19T02:05:57;98694.69;;;10.81;52.59
47280;BME280;34064;44.942;0.008;2023-04-19T02:08:44;98696.00;;;10.75;53.27
47280;BME280;34064;44.942;0.008;2023-04-19T02:11:24;98703.50;;;10.70;53.53
47280;BME280;34064;44.942;0.008;2023-04-19T02:14:09;98699.03;;;10.70;53.37
47280;BME280;34064;44.942;0.008;2023-04-19T02:17:01;98700.00;;;10.69;53.31
47280;BME280;34064;44.942;0.008;2023-04-19T02:19:40;98698.19;;;10.70;53.13
47280;BME280;34064;44.942;0.008;2023-04-19T02:25:51;98693.47;;;10.62;52.90
47280;BME280;34064;44.942;0.008;2023-04-19T02:28:29;98692.75;;;10.60;53.13
47280;BME280;34064;44.942;0.008;2023-04-19T02:34:53;98688.28;;;10.49;53.28
47280;BME280;34064;44.942;0.008;2023-04-19T02:37:32;98692.75;;;10.37;54.02
47280;BME280;34064;44.942;0.008;2023-04-19T02:43:50;98680.50;;;10.35;53.16
47280;BME280;34064;44.942;0.008;2023-04-19T02:46:35;98683.28;;;10.33;53.20
47280;BME280;34064;44.942;0.008;2023-04-19T02:52:47;98688.97;;;10.28;53.29
47280;BME280;34064;44.942;0.008;2023-04-19T02:55:35;98689.19;;;10.25;53.12
47280;BME280;34064;44.942;0.008;2023-04-19T02:58:33;98687.75;;;10.21;53.54
47280;BME280;34064;44.942;0.008;2023-04-19T03:01:43;98688.72;;;10.20;53.58
47280;BME280;34064;44.942;0.008;2023-04-19T03:04:29;98694.75;;;10.22;53.58
47280;BME280;34064;44.942;0.008;2023-04-19T03:07:15;98688.22;;;10.26;53.44
47280;BME280;34064;44.942;0.008;2023-04-19T03:10:10;98686.44;;;10.27;53.79
47280;BME280;34064;44.942;0.008;2023-04-19T03:16:24;98694.16;;;10.19;53.87
47280;BME280;34064;44.942;0.008;2023-04-19T03:18:53;98699.44;;;10.19;53.83
47280;BME280;34064;44.942;0.008;2023-04-19T03:22:03;98697.50;;;10.09;54.19
47280;BME280;34064;44.942;0.008;2023-04-19T03:24:40;98695.91;;;10.07;53.82
47280;BME280;34064;44.942;0.008;2023-04-19T03:27:27;98692.53;;;10.05;53.87
47280;BME280;34064;44.942;0.008;2023-04-19T03:32:54;98702.25;;;9.93;54.47
47280;BME280;34064;44.942;0.008;2023-04-19T03:35:23;98709.97;;;9.84;54.07
47280;BME280;34064;44.942;0.008;2023-04-19T03:38:04;98715.84;;;9.77;54.02
47280;BME280;34064;44.942;0.008;2023-04-19T03:40:43;98717.25;;;9.70;54.16
47280;BME280;34064;44.942;0.008;2023-04-19T03:43:18;98711.59;;;9.63;53.95
47280;BME280;34064;44.942;0.008;2023-04-19T03:45:57;98716.75;;;9.64;53.78
47280;BME280;34064;44.942;0.008;2023-04-19T03:48:49;98711.47;;;9.64;53.85
47280;BME280;34064;44.942;0.008;2023-04-19T03:52:07;98710.72;;;9.62;53.89
47280;BME280;34064;44.942;0.008;2023-04-19T03:55:06;98705.75;;;9.58;53.69
47280;BME280;34064;44.942;0.008;2023-04-19T04:01:48;98713.78;;;9.45;54.10
47280;BME280;34064;44.942;0.008;2023-04-19T04:07:44;98722.19;;;9.39;53.75
47280;BME280;34064;44.942;0.008;2023-04-19T04:10:24;98734.56;;;9.38;54.01
47280;BME280;34064;44.942;0.008;2023-04-19T04:13:08;98731.94;;;9.38;53.87
47280;BME280;34064;44.942;0.008;2023-04-19T04:15:53;98726.41;;;9.41;53.46
47280;BME280;34064;44.942;0.008;2023-04-19T04:18:23;98733.16;;;9.45;53.72
47280;BME280;34064;44.942;0.008;2023-04-19T04:34:11;98725.06;;;9.35;53.66
47280;BME280;34064;44.942;0.008;2023-04-19T04:36:58;98727.09;;;9.32;53.87
47280;BME280;34064;44.942;0.008;2023-04-19T04:39:44;98745.22;;;9.25;54.20
47280;BME280;34064;44.942;0.008;2023-04-19T04:42:13;98736.97;;;9.17;54.43
47280;BME280;34064;44.942;0.008;2023-04-19T04:44:46;98737.09;;;9.15;54.19
47280;BME280;34064;44.942;0.008;2023-04-19T04:47:35;98749.41;;;9.03;54.65
47280;BME280;34064;44.942;0.008;2023-04-19T04:50:20;98756.63;;;9.01;54.16
47280;BME280;34064;44.942;0.008;2023-04-19T04:53:06;98754.94;;;9.00;54.26
47280;BME280;34064;44.942;0.008;2023-04-19T04:55:47;98761.53;;;8.95;54.47
47280;BME280;34064;44.942;0.008;2023-04-19T04:58:31;98758.25;;;8.91;54.59
47280;BME280;34064;44.942;0.008;2023-04-19T05:01:11;98762.91;;;8.87;54.79
47280;BME280;34064;44.942;0.008;2023-04-19T05:03:48;98767.47;;;8.85;54.73
47280;BME280;34064;44.942;0.008;2023-04-19T05:06:19;98768.75;;;8.80;55.06
47280;BME280;34064;44.942;0.008;2023-04-19T05:09:07;98769.25;;;8.85;54.33
47280;BME280;34064;44.942;0.008;2023-04-19T05:11:42;98760.59;;;8.83;54.46
47280;BME280;34064;44.942;0.008;2023-04-19T05:14:50;98764.06;;;8.83;54.26
47280;BME280;34064;44.942;0.008;2023-04-19T05:17:44;98770.19;;;8.84;54.34
47280;BME280;34064;44.942;0.008;2023-04-19T05:20:41;98768.31;;;8.86;54.50
47280;BME280;34064;44.942;0.008;2023-04-19T05:23:20;98777.19;;;8.85;54.67
47280;BME280;34064;44.942;0.008;2023-04-19T05:26:16;98780.81;;;8.84;55.17
47280;BME280;34064;44.942;0.008;2023-04-19T05:28:45;98774.66;;;8.83;54.70
47280;BME280;34064;44.942;0.008;2023-04-19T05:31:16;98775.94;;;8.78;55.07
47280;BME280;34064;44.942;0.008;2023-04-19T05:33:49;98777.44;;;8.82;54.86
47280;BME280;34064;44.942;0.008;2023-04-19T05:36:36;98779.53;;;8.77;55.30
47280;BME280;34064;44.942;0.008;2023-04-19T05:39:04;98780.19;;;8.67;55.54
47280;BME280;34064;44.942;0.008;2023-04-19T05:41:34;98777.22;;;8.72;54.96
47280;BME280;34064;44.942;0.008;2023-04-19T05:44:00;98781.44;;;8.74;55.02
47280;BME280;34064;44.942;0.008;2023-04-19T05:46:29;98785.78;;;8.76;54.61
47280;BME280;34064;44.942;0.008;2023-04-19T05:48:57;98787.47;;;8.77;54.84
47280;BME280;34064;44.942;0.008;2023-04-19T05:51:27;98777.63;;;8.79;54.59
47280;BME280;34064;44.942;0.008;2023-04-19T05:53:56;98772.75;;;8.85;54.45
47280;BME280;34064;44.942;0.008;2023-04-19T05:56:26;98774.03;;;8.93;54.38
47280;BME280;34064;44.942;0.008;2023-04-19T05:58:55;98763.22;;;8.96;54.81
47280;BME280;34064;44.942;0.008;2023-04-19T06:01:29;98765.31;;;9.03;54.81
47280;BME280;34064;44.942;0.008;2023-04-19T06:03:58;98757.03;;;9.08;55.10
47280;BME280;34064;44.942;0.008;2023-04-19T06:06:26;98753.00;;;9.15;54.82
47280;BME280;34064;44.942;0.008;2023-04-19T06:08:55;98759.88;;;9.18;55.07
47280;BME280;34064;44.942;0.008;2023-04-19T06:11:24;98758.47;;;9.25;54.85
47280;BME280;34064;44.942;0.008;2023-04-19T06:13:54;98756.38;;;9.30;54.99
47280;BME280;34064;44.942;0.008;2023-04-19T06:16:45;98751.09;;;9.42;54.50
47280;BME280;34064;44.942;0.008;2023-04-19T06:19:14;98741.84;;;9.47;54.68
47280;BME280;34064;44.942;0.008;2023-04-19T06:25:00;98727.16;;;9.67;55.15
47280;BME280;34064;44.942;0.008;2023-04-19T06:28:02;98731.66;;;9.78;54.56
47280;BME280;34064;44.942;0.008;2023-04-19T06:34:20;98730.75;;;9.91;55.19
47280;BME280;34064;44.942;0.008;2023-04-19T06:36:49;98730.63;;;9.92;55.58
47280;BME280;34064;44.942;0.008;2023-04-19T06:39:22;98726.78;;;9.96;55.67
47280;BME280;34064;44.942;0.008;2023-04-19T06:41:50;98732.78;;;9.98;55.91
47280;BME280;34064;44.942;0.008;2023-04-19T06:44:17;98726.31;;;10.03;55.40
47280;BME280;34064;44.942;0.008;2023-04-19T06:46:44;98722.22;;;10.10;54.98
47280;BME280;34064;44.942;0.008;2023-04-19T06:49:13;98716.22;;;10.19;55.05
47280;BME280;34064;44.942;0.008;2023-04-19T06:51:42;98712.97;;;10.27;54.65
47280;BME280;34064;44.942;0.008;2023-04-19T06:54:12;98713.22;;;10.35;55.17
47280;BME280;34064;44.942;0.008;2023-04-19T06:56:42;98710.63;;;10.47;55.40
47280;BME280;34064;44.942;0.008;2023-04-19T06:59:16;98695.66;;;10.57;55.60
47280;BME280;34064;44.942;0.008;2023-04-19T07:01:46;98700.13;;;10.68;55.74
47280;BME280;34064;44.942;0.008;2023-04-19T07:04:26;98689.00;;;10.85;55.54
47280;BME280;34064;44.942;0.008;2023-04-19T07:06:56;98687.66;;;11.02;55.95
47280;BME280;34064;44.942;0.008;2023-04-19T07:09:25;98680.63;;;11.24;56.28
47280;BME280;34064;44.942;0.008;2023-04-19T07:11:56;98658.53;;;11.45;56.24
47280;BME280;34064;44.942;0.008;2023-04-19T07:14:25;98659.28;;;11.68;56.58
47280;BME280;34064;44.942;0.008;2023-04-19T07:16:58;98652.41;;;11.86;56.60
47280;BME280;34064;44.942;0.008;2023-04-19T07:19:30;98646.28;;;12.07;56.75
47280;BME280;34064;44.942;0.008;2023-04-19T07:21:56;98637.81;;;12.23;56.63
47280;BME280;34064;44.942;0.008;2023-04-19T07:24:22;98634.53;;;12.41;56.19
47280;BME280;34064;44.942;0.008;2023-04-19T07:26:50;98624.81;;;12.61;56.40
47280;BME280;34064;44.942;0.008;2023-04-19T07:29:16;98612.06;;;12.74;56.38
47280;BME280;34064;44.942;0.008;2023-04-19T07:31:44;98598.94;;;12.92;56.30
47280;BME280;34064;44.942;0.008;2023-04-19T07:34:10;98607.38;;;13.07;56.26
47280;BME280;34064;44.942;0.008;2023-04-19T07:36:36;98599.94;;;13.21;56.11
47280;BME280;34064;44.942;0.008;2023-04-19T07:39:04;98591.25;;;13.38;55.92
47280;BME280;34064;44.942;0.008;2023-04-19T07:41:31;98584.13;;;13.59;55.65
47280;BME280;34064;44.942;0.008;2023-04-19T07:43:57;98577.50;;;13.72;55.70
47280;BME280;34064;44.942;0.008;2023-04-19T07:46:24;98575.88;;;13.89;55.44
47280;BME280;34064;44.942;0.008;2023-04-19T07:48:50;98566.56;;;14.13;54.95
47280;BME280;34064;44.942;0.008;2023-04-19T07:51:17;98570.13;;;14.32;54.81
47280;BME280;34064;44.942;0.008;2023-04-19T07:53:46;98554.47;;;14.47;54.42
47280;BME280;34064;44.942;0.008;2023-04-19T07:56:13;98551.97;;;14.63;54.49
47280;BME280;34064;44.942;0.008;2023-04-19T07:58:40;98549.13;;;14.75;53.95
47280;BME280;34064;44.942;0.008;2023-04-19T08:01:07;98538.22;;;14.86;53.90
47280;BME280;34064;44.942;0.008;2023-04-19T08:03:33;98543.31;;;14.97;53.75
47280;BME280;34064;44.942;0.008;2023-04-19T08:06:01;98535.59;;;15.12;53.38
47280;BME280;34064;44.942;0.008;2023-04-19T08:08:28;98532.41;;;15.27;52.85
47280;BME280;34064;44.942;0.008;2023-04-19T08:10:54;98524.16;;;15.38;52.50
47280;BME280;34064;44.942;0.008;2023-04-19T08:13:21;98521.75;;;15.53;52.53
47280;BME280;34064;44.942;0.008;2023-04-19T08:15:47;98515.50;;;15.71;52.49
47280;BME280;34064;44.942;0.008;2023-04-19T08:18:14;98512.94;;;15.87;51.97
47280;BME280;34064;44.942;0.008;2023-04-19T08:20:40;98514.03;;;16.03;51.88
47280;BME280;34064;44.942;0.008;2023-04-19T08:23:10;98504.72;;;16.15;51.33
47280;BME280;34064;44.942;0.008;2023-04-19T08:25:37;98502.56;;;16.27;51.20
47280;BME280;34064;44.942;0.008;2023-04-19T08:28:04;98494.75;;;16.42;50.94
47280;BME280;34064;44.942;0.008;2023-04-19T08:30:31;98492.28;;;16.57;50.99
47280;BME280;34064;44.942;0.008;2023-04-19T08:32:58;98489.00;;;16.72;50.45
47280;BME280;34064;44.942;0.008;2023-04-19T08:35:24;98489.00;;;16.88;50.27
47280;BME280;34064;44.942;0.008;2023-04-19T08:37:51;98487.88;;;16.99;49.97
47280;BME280;34064;44.942;0.008;2023-04-19T08:40:17;98482.19;;;17.10;49.61
47280;BME280;34064;44.942;0.008;2023-04-19T08:42:43;98476.81;;;17.19;49.01
47280;BME280;34064;44.942;0.008;2023-04-19T08:45:10;98465.06;;;17.28;48.99
47280;BME280;34064;44.942;0.008;2023-04-19T08:47:39;98472.09;;;17.37;49.30
47280;BME280;34064;44.942;0.008;2023-04-19T08:50:07;98463.69;;;17.49;48.38
47280;BME280;34064;44.942;0.008;2023-04-19T08:52:35;98464.00;;;17.62;47.94
47280;BME280;34064;44.942;0.008;2023-04-19T08:55:07;98469.34;;;17.78;48.05
47280;BME280;34064;44.942;0.008;2023-04-19T08:57:35;98463.91;;;17.95;47.82
47280;BME280;34064;44.942;0.008;2023-04-19T09:00:02;98460.88;;;18.06;47.31
47280;BME280;34064;44.942;0.008;2023-04-19T09:02:50;98456.63;;;18.20;47.21
47280;BME280;34064;44.942;0.008;2023-04-19T09:05:17;98456.06;;;18.33;46.86
47280;BME280;34064;44.942;0.008;2023-04-19T09:07:45;98450.56;;;18.50;46.89
47280;BME280;34064;44.942;0.008;2023-04-19T09:10:14;98449.16;;;18.62;46.28
47280;BME280;34064;44.942;0.008;2023-04-19T09:12:41;98447.38;;;18.78;45.48
47280;BME280;34064;44.942;0.008;2023-04-19T09:15:08;98436.84;;;18.91;45.00
47280;BME280;34064;44.942;0.008;2023-04-19T09:17:36;98436.81;;;18.99;44.63
47280;BME280;34064;44.942;0.008;2023-04-19T09:20:04;98441.31;;;19.07;44.55
47280;BME280;34064;44.942;0.008;2023-04-19T09:22:31;98429.19;;;19.26;44.46
47280;BME280;34064;44.942;0.008;2023-04-19T09:24:59;98427.34;;;19.42;43.80
47280;BME280;34064;44.942;0.008;2023-04-19T09:27:30;98416.41;;;19.58;43.53
47280;BME280;34064;44.942;0.008;2023-04-19T09:29:59;98418.25;;;19.73;43.61
47280;BME280;34064;44.942;0.008;2023-04-19T09:32:26;98405.16;;;19.85;43.28
47280;BME280;34064;44.942;0.008;2023-04-19T09:34:55;98399.97;;;19.98;42.41
47280;BME280;34064;44.942;0.008;2023-04-19T09:37:22;98398.38;;;20.04;42.53
47280;BME280;34064;44.942;0.008;2023-04-19T09:39:48;98394.34;;;20.15;42.55
47280;BME280;34064;44.942;0.008;2023-04-19T09:42:15;98392.84;;;20.27;42.36
47280;BME280;34064;44.942;0.008;2023-04-19T09:45:00;98388.63;;;20.39;42.29
47280;BME280;34064;44.942;0.008;2023-04-19T09:47:28;98376.75;;;20.55;41.88
47280;BME280;34064;44.942;0.008;2023-04-19T09:50:24;98360.97;;;20.74;40.74
47280;BME280;34064;44.942;0.008;2023-04-19T09:52:51;98363.53;;;20.82;40.97
47280;BME280;34064;44.942;0.008;2023-04-19T09:55:19;98359.09;;;20.96;41.22
47280;BME280;34064;44.942;0.008;2023-04-19T09:57:46;98352.50;;;21.06;40.48
47280;BME280;34064;44.942;0.008;2023-04-19T10:00:12;98348.47;;;21.23;39.64
47280;BME280;34064;44.942;0.008;2023-04-19T10:02:40;98342.31;;;21.36;40.08
47280;BME280;34064;44.942;0.008;2023-04-19T10:05:08;98335.75;;;21.52;39.94
47280;BME280;34064;44.942;0.008;2023-04-19T10:07:35;98326.75;;;21.73;38.59
47280;BME280;34064;44.942;0.008;2023-04-19T10:10:02;98337.16;;;21.76;38.84
47280;BME280;34064;44.942;0.008;2023-04-19T10:12:31;98319.31;;;21.82;38.96
47280;BME280;34064;44.942;0.008;2023-04-19T10:14:57;98323.50;;;21.91;38.33
47280;BME280;34064;44.942;0.008;2023-04-19T10:17:24;98318.97;;;22.05;38.20
47280;BME280;34064;44.942;0.008;2023-04-19T10:20:13;98311.09;;;22.17;38.03
47280;BME280;34064;44.942;0.008;2023-04-19T10:22:42;98316.50;;;22.31;37.76
47280;BME280;34064;44.942;0.008;2023-04-19T10:25:14;98304.06;;;22.43;37.39
47280;BME280;34064;44.942;0.008;2023-04-19T10:27:41;98307.84;;;22.49;36.98
47280;BME280;34064;44.942;0.008;2023-04-19T10:30:23;98302.84;;;22.59;36.79
47280;BME280;34064;44.942;0.008;2023-04-19T10:32:57;98292.84;;;22.80;36.38
47280;BME280;34064;44.942;0.008;2023-04-19T10:35:26;98274.09;;;22.92;35.76
47280;BME280;34064;44.942;0.008;2023-04-19T10:38:11;98276.97;;;23.03;35.64
47280;BME280;34064;44.942;0.008;2023-04-19T10:40:54;98267.78;;;23.18;34.90
47280;BME280;34064;44.942;0.008;2023-04-19T10:43:22;98267.38;;;23.28;34.53
47280;BME280;34064;44.942;0.008;2023-04-19T10:45:49;98272.16;;;23.32;34.31
47280;BME280;34064;44.942;0.008;2023-04-19T10:51:16;98261.03;;;23.54;33.40
47280;BME280;34064;44.942;0.008;2023-04-19T10:53:57;98251.16;;;23.66;33.17
47280;BME280;34064;44.942;0.008;2023-04-19T11:01:37;98244.50;;;24.08;32.24
47280;BME280;34064;44.942;0.008;2023-04-19T11:04:05;98246.56;;;24.12;32.56
47280;BME280;34064;44.942;0.008;2023-04-19T11:06:32;98239.00;;;24.21;32.99
47280;BME280;34064;44.942;0.008;2023-04-19T11:09:00;98232.16;;;24.37;32.25
47280;BME280;34064;44.942;0.008;2023-04-19T11:11:35;98231.34;;;24.37;31.83
47280;BME280;34064;44.942;0.008;2023-04-19T11:14:03;98232.31;;;24.49;31.92
47280;BME280;34064;44.942;0.008;2023-04-19T11:16:30;98224.50;;;24.59;31.48
47280;BME280;34064;44.942;0.008;2023-04-19T11:18:56;98221.91;;;24.65;31.86
47280;BME280;34064;44.942;0.008;2023-04-19T11:21:22;98222.66;;;24.79;31.99
47280;BME280;34064;44.942;0.008;2023-04-19T11:24:04;98217.53;;;24.89;31.55
47280;BME280;34064;44.942;0.008;2023-04-19T11:26:30;98212.94;;;24.89;31.33
47280;BME280;34064;44.942;0.008;2023-04-19T11:28:57;98215.81;;;24.95;30.88
47280;BME280;34064;44.942;0.008;2023-04-19T11:31:24;98213.41;;;25.05;30.66
47280;BME280;34064;44.942;0.008;2023-04-19T11:33:50;98205.56;;;25.15;30.65
47280;BME280;34064;44.942;0.008;2023-04-19T11:36:17;98197.22;;;25.29;30.90
47280;BME280;34064;44.942;0.008;2023-04-19T11:38:47;98198.59;;;25.38;31.09
47280;BME280;34064;44.942;0.008;2023-04-19T11:41:14;98191.34;;;25.50;31.01
47280;BME280;34064;44.942;0.008;2023-04-19T11:43:40;98189.16;;;25.59;30.35
47280;BME280;34064;44.942;0.008;2023-04-19T11:46:11;98186.53;;;25.52;30.23
47280;BME280;34064;44.942;0.008;2023-04-19T11:48:39;98194.13;;;25.62;30.38
47280;BME280;34064;44.942;0.008;2023-04-19T11:51:15;98184.38;;;25.73;30.41
47280;BME280;34064;44.942;0.008;2023-04-19T11:53:42;98182.97;;;25.82;30.53
47280;BME280;34064;44.942;0.008;2023-04-19T11:56:09;98169.63;;;25.93;30.73
47280;BME280;34064;44.942;0.008;2023-04-19T11:58:41;98159.59;;;26.05;30.40
47280;BME280;34064;44.942;0.008;2023-04-19T12:01:28;98162.00;;;26.13;29.64
47280;BME280;34064;44.942;0.008;2023-04-19T12:03:55;98163.19;;;26.18;30.08
47280;BME280;34064;44.942;0.008;2023-04-19T12:06:28;98155.75;;;26.25;29.68
47280;BME280;34064;44.942;0.008;2023-04-19T12:08:57;98166.88;;;26.23;30.07
47280;BME280;34064;44.942;0.008;2023-04-19T12:11:25;98162.75;;;26.21;28.89
47280;BME280;34064;44.942;0.008;2023-04-19T12:14:12;98155.38;;;26.21;29.49
47280;BME280;34064;44.942;0.008;2023-04-19T12:16:39;98156.81;;;26.24;30.14
47280;BME280;34064;44.942;0.008;2023-04-19T12:19:13;98166.53;;;26.20;30.26
47280;BME280;34064;44.942;0.008;2023-04-19T12:21:41;98164.84;;;26.19;29.48
47280;BME280;34064;44.942;0.008;2023-04-19T12:24:07;98174.59;;;26.08;30.19
47280;BME280;34064;44.942;0.008;2023-04-19T12:26:34;98172.06;;;26.13;30.22
47280;BME280;34064;44.942;0.008;2023-04-19T12:29:02;98166.16;;;26.16;29.74
47280;BME280;34064;44.942;0.008;2023-04-19T12:31:30;98158.72;;;26.35;29.98
47280;BME280;34064;44.942;0.008;2023-04-19T12:33:59;98142.25;;;26.66;29.83
47280;BME280;34064;44.942;0.008;2023-04-19T12:36:25;98133.13;;;26.84;28.99
47280;BME280;34064;44.942;0.008;2023-04-19T12:38:53;98124.47;;;26.99;28.98
47280;BME280;34064;44.942;0.008;2023-04-19T12:41:19;98112.44;;;27.12;29.06
47280;BME280;34064;44.942;0.008;2023-04-19T12:43:46;98118.59;;;27.19;28.37
47280;BME280;34064;44.942;0.008;2023-04-19T12:46:12;98113.13;;;27.19;27.95
47280;BME280;34064;44.942;0.008;2023-04-19T12:48:38;98117.50;;;27.20;28.03
47280;BME280;34064;44.942;0.008;2023-04-19T12:51:05;98117.97;;;27.29;27.62
47280;BME280;34064;44.942;0.008;2023-04-19T12:53:31;98121.13;;;27.37;27.87
47280;BME280;34064;44.942;0.008;2023-04-19T12:55:58;98118.63;;;27.48;28.44
47280;BME280;34064;44.942;0.008;2023-04-19T12:58:24;98109.63;;;27.64;27.86
47280;BME280;34064;44.942;0.008;2023-04-19T13:00:51;98098.72;;;27.64;26.81
47280;BME280;34064;44.942;0.008;2023-04-19T13:03:17;98108.16;;;27.57;27.00
47280;BME280;34064;44.942;0.008;2023-04-19T13:05:44;98109.44;;;27.54;27.55
47280;BME280;34064;44.942;0.008;2023-04-19T13:08:10;98116.66;;;27.31;27.71
47280;BME280;34064;44.942;0.008;2023-04-19T13:10:36;98126.88;;;27.24;28.25
47280;BME280;34064;44.942;0.008;2023-04-19T13:13:03;98134.72;;;27.08;28.02
47280;BME280;34064;44.942;0.008;2023-04-19T13:15:29;98147.44;;;26.91;28.14
47280;BME280;34064;44.942;0.008;2023-04-19T13:17:56;98146.50;;;26.73;28.32
47280;BME280;34064;44.942;0.008;2023-04-19T13:20:22;98154.09;;;26.59;28.16
47280;BME280;34064;44.942;0.008;2023-04-19T13:22:48;98142.84;;;26.68;27.83
47280;BME280;34064;44.942;0.008;2023-04-19T13:25:15;98131.91;;;27.03;27.99
47280;BME280;34064;44.942;0.008;2023-04-19T13:27:41;98117.56;;;27.37;27.09
47280;BME280;34064;44.942;0.008;2023-04-19T13:30:08;98097.75;;;27.70;26.82
47280;BME280;34064;44.942;0.008;2023-04-19T13:32:35;98095.00;;;27.87;26.48
47280;BME280;34064;44.942;0.008;2023-04-19T13:35:01;98093.88;;;28.00;26.26
47280;BME280;34064;44.942;0.008;2023-04-19T13:37:28;98085.31;;;28.09;26.37
47280;BME280;34064;44.942;0.008;2023-04-19T13:39:54;98080.31;;;28.06;25.98
47280;BME280;34064;44.942;0.008;2023-04-19T13:42:20;98079.41;;;28.00;26.47
47280;BME280;34064;44.942;0.008;2023-04-19T13:44:48;98084.69;;;27.90;25.85
47280;BME280;34064;44.942;0.008;2023-04-19T13:47:14;98073.44;;;27.86;26.11
47280;BME280;34064;44.942;0.008;2023-04-19T13:49:41;98074.28;;;27.86;25.75
47280;BME280;34064;44.942;0.008;2023-04-19T13:52:07;98061.47;;;28.04;24.97
47280;BME280;34064;44.942;0.008;2023-04-19T13:54:34;98054.09;;;28.22;25.20
47280;BME280;34064;44.942;0.008;2023-04-19T13:57:01;98043.97;;;28.39;25.28
47280;BME280;34064;44.942;0.008;2023-04-19T13:59:28;98040.66;;;28.59;25.49
47280;BME280;34064;44.942;0.008;2023-04-19T14:01:55;98042.34;;;28.83;25.52
47280;BME280;34064;44.942;0.008;2023-04-19T14:04:22;98034.94;;;29.05;24.73
47280;BME280;34064;44.942;0.008;2023-04-19T14:06:48;98029.31;;;29.17;24.36
47280;BME280;34064;44.942;0.008;2023-04-19T14:09:14;98023.28;;;29.15;24.15
47280;BME280;34064;44.942;0.008;2023-04-19T14:11:41;98014.38;;;29.25;24.34
47280;BME280;34064;44.942;0.008;2023-04-19T14:14:08;98011.50;;;29.37;24.35
47280;BME280;34064;44.942;0.008;2023-04-19T14:16:34;98005.34;;;29.52;24.64
47280;BME280;34064;44.942;0.008;2023-04-19T14:19:00;97995.19;;;29.52;24.14
47280;BME280;34064;44.942;0.008;2023-04-19T14:21:27;98004.94;;;29.38;24.57
47280;BME280;34064;44.942;0.008;2023-04-19T14:23:53;98024.22;;;28.99;24.81
47280;BME280;34064;44.942;0.008;2023-04-19T14:26:20;98043.59;;;28.53;24.79
47280;BME280;34064;44.942;0.008;2023-04-19T14:28:46;98060.22;;;28.12;25.57
47280;BME280;34064;44.942;0.008;2023-04-19T14:31:13;98070.53;;;27.76;25.87
47280;BME280;34064;44.942;0.008;2023-04-19T14:33:39;98082.47;;;27.40;26.14
47280;BME280;34064;44.942;0.008;2023-04-19T14:36:06;98064.34;;;27.46;26.16
47280;BME280;34064;44.942;0.008;2023-04-19T14:38:33;98070.28;;;27.60;26.15
47280;BME280;34064;44.942;0.008;2023-04-19T14:41:00;98052.69;;;27.85;26.24
47280;BME280;34064;44.942;0.008;2023-04-19T14:43:27;98033.06;;;28.22;25.83
47280;BME280;34064;44.942;0.008;2023-04-19T14:45:53;98014.63;;;28.52;24.02
47280;BME280;34064;44.942;0.008;2023-04-19T14:48:20;98016.59;;;28.56;24.68
47280;BME280;34064;44.942;0.008;2023-04-19T14:50:47;98007.06;;;28.81;24.86
47280;BME280;34064;44.942;0.008;2023-04-19T14:53:13;97994.75;;;29.06;24.71
47280;BME280;34064;44.942;0.008;2023-04-19T14:55:39;97976.13;;;29.30;24.13
47280;BME280;34064;44.942;0.008;2023-04-19T14:58:06;97964.81;;;29.49;24.35
47280;BME280;34064;44.942;0.008;2023-04-19T15:00:33;97951.59;;;29.73;24.07
47280;BME280;34064;44.942;0.008;2023-04-19T15:02:59;97974.09;;;29.48;24.42
47280;BME280;34064;44.942;0.008;2023-04-19T15:05:26;97988.78;;;29.09;24.67
47280;BME280;34064;44.942;0.008;2023-04-19T15:07:53;98003.56;;;28.63;24.63
47280;BME280;34064;44.942;0.008;2023-04-19T15:10:19;98023.38;;;28.31;25.16
47280;BME280;34064;44.942;0.008;2023-04-19T15:12:46;98032.91;;;28.12;25.41
47280;BME280;34064;44.942;0.008;2023-04-19T15:15:12;98041.34;;;27.93;25.35
47280;BME280;34064;44.942;0.008;2023-04-19T15:17:38;98046.16;;;27.69;25.38
47280;BME280;34064;44.942;0.008;2023-04-19T15:20:06;98053.53;;;27.39;25.77
47280;BME280;34064;44.942;0.008;2023-04-19T15:22:33;98048.00;;;27.34;25.90
47280;BME280;34064;44.942;0.008;2023-04-19T15:25:02;98060.88;;;27.22;25.97
47280;BME280;34064;44.942;0.008;2023-04-19T15:27:29;98041.19;;;27.49;26.36
47280;BME280;34064;44.942;0.008;2023-04-19T15:29:56;98030.94;;;27.90;25.90
47280;BME280;34064;44.942;0.008;2023-04-19T15:32:22;98010.34;;;28.39;25.85
47280;BME280;34064;44.942;0.008;2023-04-19T15:34:49;97991.75;;;28.80;24.85
47280;BME280;34064;44.942;0.008;2023-04-19T15:37:15;97973.53;;;29.13;24.21
47280;BME280;34064;44.942;0.008;2023-04-19T15:39:41;97965.50;;;29.34;24.05
47280;BME280;34064;44.942;0.008;2023-04-19T15:42:08;97955.88;;;29.59;23.76
47280;BME280;34064;44.942;0.008;2023-04-19T15:44:35;97943.50;;;29.88;23.73
47280;BME280;34064;44.942;0.008;2023-04-19T15:47:01;97936.66;;;29.91;23.36
47280;BME280;34064;44.942;0.008;2023-04-19T15:49:28;97923.41;;;30.21;23.24
47280;BME280;34064;44.942;0.008;2023-04-19T15:51:55;97919.66;;;30.42;23.30
47280;BME280;34064;44.942;0.008;2023-04-19T15:54:21;97915.34;;;30.57;23.12
47280;BME280;34064;44.942;0.008;2023-04-19T15:56:48;97903.88;;;30.80;22.86
47280;BME280;34064;44.942;0.008;2023-04-19T15:59:14;97920.28;;;30.60;22.51